sensor_id;sensor_type;location;lat;lon;timestamp;temperature;humidity
75105;DHT22;64778;47.314;8.466;2023-01-16T00:01:47;0.20;92.40
75105;DHT22;64778;47.314;8.466;2023-01-16T00:04:15;0.10;92.50
75105;DHT22;64778;47.314;8.466;2023-01-16T00:06:41;0.10;92.50
75105;DHT22;64778;47.314;8.466;2023-01-16T00:09:09;0.10;92.40
75105;DHT22;64778;47.314;8.466;2023-01-16T00:11:35;0.10;92.80
75105;DHT22;64778;47.314;8.466;2023-01-16T00:14:00;0.00;92.60
75105;DHT22;64778;47.314;8.466;2023-01-16T00:16:28;0.10;92.70
75105;DHT22;64778;47.314;8.466;2023-01-16T00:18:55;0.10;92.40
75105;DHT22;64778;47.314;8.466;2023-01-16T00:21:23;0.20;92.60
75105;DHT22;64778;47.314;8.466;2023-01-16T00:23:58;0.10;92.50
75105;DHT22;64778;47.314;8.466;2023-01-16T00:26:27;0.10;92.50
75105;DHT22;64778;47.314;8.466;2023-01-16T00:28:56;0.10;92.50
75105;DHT22;64778;47.314;8.466;2023-01-16T00:31:22;0.00;92.60
75105;DHT22;64778;47.314;8.466;2023-01-16T00:33:53;0.00;92.60
75105;DHT22;64778;47.314;8.466;2023-01-16T00:36:21;0.00;92.70
75105;DHT22;64778;47.314;8.466;2023-01-16T00:38:46;0.00;92.70
75105;DHT22;64778;47.314;8.466;2023-01-16T00:41:15;0.10;92.60
75105;DHT22;64778;47.314;8.466;2023-01-16T00:43:40;0.10;92.50
75105;DHT22;64778;47.314;8.466;2023-01-16T00:46:06;0.10;92.20
75105;DHT22;64778;47.314;8.466;2023-01-16T00:48:34;0.20;92.10
75105;DHT22;64778;47.314;8.466;2023-01-16T00:51:05;0.20;92.20
75105;DHT22;64778;47.314;8.466;2023-01-16T00:53:35;0.10;91.90
75105;DHT22;64778;47.314;8.466;2023-01-16T00:56:00;0.00;92.00
75105;DHT22;64778;47.314;8.466;2023-01-16T00:58:28;0.00;92.00
75105;DHT22;64778;47.314;8.466;2023-01-16T01:00:56;-0.10;92.00
75105;DHT22;64778;47.314;8.466;2023-01-16T01:03:24;-0.20;92.20
75105;DHT22;64778;47.314;8.466;2023-01-16T01:05:49;-0.20;92.40
75105;DHT22;64778;47.314;8.466;2023-01-16T01:08:17;-0.10;92.50
75105;DHT22;64778;47.314;8.466;2023-01-16T01:10:43;-0.10;92.30
75105;DHT22;64778;47.314;8.466;2023-01-16T01:13:12;-0.10;92.20
75105;DHT22;64778;47.314;8.466;2023-01-16T01:15:40;-0.10;92.40
75105;DHT22;64778;47.314;8.466;2023-01-16T01:18:08;-0.10;92.40
75105;DHT22;64778;47.314;8.466;2023-01-16T01:20:34;-0.20;92.40
75105;DHT22;64778;47.314;8.466;2023-01-16T01:22:59;-0.20;92.70
75105;DHT22;64778;47.314;8.466;2023-01-16T01:25:25;-0.20;92.80
75105;DHT22;64778;47.314;8.466;2023-01-16T01:27:53;-0.20;92.70
75105;DHT22;64778;47.314;8.466;2023-01-16T01:30:19;-0.10;92.80
75105;DHT22;64778;47.314;8.466;2023-01-16T01:32:47;-0.10;92.60
75105;DHT22;64778;47.314;8.466;2023-01-16T01:35:14;-0.10;92.50
75105;DHT22;64778;47.314;8.466;2023-01-16T01:37:45;-0.20;92.30
75105;DHT22;64778;47.314;8.466;2023-01-16T01:40:13;-0.20;92.50
75105;DHT22;64778;47.314;8.466;2023-01-16T01:42:40;-0.20;92.60
75105;DHT22;64778;47.314;8.466;2023-01-16T01:45:28;-0.20;92.70
75105;DHT22;64778;47.314;8.466;2023-01-16T01:53:15;0.00;92.50
75105;DHT22;64778;47.314;8.466;2023-01-16T01:55:46;0.00;92.10
75105;DHT22;64778;47.314;8.466;2023-01-16T01:58:18;0.00;92.00
75105;DHT22;64778;47.314;8.466;2023-01-16T02:00:52;0.00;92.10
75105;DHT22;64778;47.314;8.466;2023-01-16T02:03:23;0.00;92.00
75105;DHT22;64778;47.314;8.466;2023-01-16T02:05:54;0.00;92.00
75105;DHT22;64778;47.314;8.466;2023-01-16T02:08:24;0.00;91.90
75105;DHT22;64778;47.314;8.466;2023-01-16T02:11:00;-0.10;91.80
75105;DHT22;64778;47.314;8.466;2023-01-16T02:13:27;-0.10;91.80
75105;DHT22;64778;47.314;8.466;2023-01-16T02:15:58;-0.30;92.00
75105;DHT22;64778;47.314;8.466;2023-01-16T02:18:44;-0.40;91.90
75105;DHT22;64778;47.314;8.466;2023-01-16T02:27:00;-0.60;92.60
75105;DHT22;64778;47.314;8.466;2023-01-16T02:35:54;-0.50;93.00
75105;DHT22;64778;47.314;8.466;2023-01-16T02:49:42;-0.50;92.30
75105;DHT22;64778;47.314;8.466;2023-01-16T02:52:13;-0.50;92.80
75105;DHT22;64778;47.314;8.466;2023-01-16T02:54:57;-0.40;92.70
75105;DHT22;64778;47.314;8.466;2023-01-16T02:57:29;-0.50;92.60
75105;DHT22;64778;47.314;8.466;2023-01-16T02:59:56;-0.50;92.10
75105;DHT22;64778;47.314;8.466;2023-01-16T03:02:22;-0.50;92.40
75105;DHT22;64778;47.314;8.466;2023-01-16T03:04:51;-0.60;92.50
75105;DHT22;64778;47.314;8.466;2023-01-16T03:27:15;-0.40;91.40
75105;DHT22;64778;47.314;8.466;2023-01-16T03:29:52;-0.40;91.30
75105;DHT22;64778;47.314;8.466;2023-01-16T03:32:32;-0.50;91.40
75105;DHT22;64778;47.314;8.466;2023-01-16T03:38:11;-0.60;91.60
75105;DHT22;64778;47.314;8.466;2023-01-16T03:40:42;-0.50;91.70
75105;DHT22;64778;47.314;8.466;2023-01-16T03:43:29;-0.50;91.70
75105;DHT22;64778;47.314;8.466;2023-01-16T03:48:34;-0.40;91.30
75105;DHT22;64778;47.314;8.466;2023-01-16T03:51:07;-0.40;91.10
75105;DHT22;64778;47.314;8.466;2023-01-16T03:53:45;-0.40;91.00
75105;DHT22;64778;47.314;8.466;2023-01-16T03:58:47;-0.50;90.90
75105;DHT22;64778;47.314;8.466;2023-01-16T04:03:55;-0.60;91.00
75105;DHT22;64778;47.314;8.466;2023-01-16T04:06:59;-0.70;91.20
75105;DHT22;64778;47.314;8.466;2023-01-16T04:09:39;-0.70;91.30
75105;DHT22;64778;47.314;8.466;2023-01-16T04:12:07;-0.70;91.20
75105;DHT22;64778;47.314;8.466;2023-01-16T04:14:39;-0.60;91.00
75105;DHT22;64778;47.314;8.466;2023-01-16T04:17:06;-0.80;91.00
75105;DHT22;64778;47.314;8.466;2023-01-16T04:19:34;-0.90;90.90
75105;DHT22;64778;47.314;8.466;2023-01-16T04:22:06;-0.90;91.30
75105;DHT22;64778;47.314;8.466;2023-01-16T04:24:37;-0.90;91.50
75105;DHT22;64778;47.314;8.466;2023-01-16T04:27:03;-0.80;91.40
75105;DHT22;64778;47.314;8.466;2023-01-16T04:29:29;-0.80;91.40
75105;DHT22;64778;47.314;8.466;2023-01-16T04:31:57;-0.80;91.30
75105;DHT22;64778;47.314;8.466;2023-01-16T04:34:22;-0.90;91.40
75105;DHT22;64778;47.314;8.466;2023-01-16T04:36:50;-0.90;91.60
75105;DHT22;64778;47.314;8.466;2023-01-16T04:39:16;-0.90;91.50
75105;DHT22;64778;47.314;8.466;2023-01-16T04:41:42;-0.90;90.80
75105;DHT22;64778;47.314;8.466;2023-01-16T04:44:16;-0.90;91.00
75105;DHT22;64778;47.314;8.466;2023-01-16T04:46:44;-1.00;90.90
75105;DHT22;64778;47.314;8.466;2023-01-16T04:49:14;-1.10;91.00
75105;DHT22;64778;47.314;8.466;2023-01-16T04:51:40;-1.20;91.30
75105;DHT22;64778;47.314;8.466;2023-01-16T04:54:10;-1.10;91.40
75105;DHT22;64778;47.314;8.466;2023-01-16T04:56:38;-1.00;91.50
75105;DHT22;64778;47.314;8.466;2023-01-16T04:59:06;-0.90;91.20
75105;DHT22;64778;47.314;8.466;2023-01-16T05:01:34;-0.90;91.10
75105;DHT22;64778;47.314;8.466;2023-01-16T05:04:07;-0.90;91.10
75105;DHT22;64778;47.314;8.466;2023-01-16T05:06:35;-0.80;90.60
75105;DHT22;64778;47.314;8.466;2023-01-16T05:09:03;-0.80;90.50
75105;DHT22;64778;47.314;8.466;2023-01-16T05:11:29;-0.90;90.70
75105;DHT22;64778;47.314;8.466;2023-01-16T05:13:57;-0.90;90.70
75105;DHT22;64778;47.314;8.466;2023-01-16T05:16:23;-0.90;90.40
75105;DHT22;64778;47.314;8.466;2023-01-16T05:18:48;-1.00;90.30
75105;DHT22;64778;47.314;8.466;2023-01-16T05:21:14;-1.20;90.60
75105;DHT22;64778;47.314;8.466;2023-01-16T05:23:39;-1.20;90.90
75105;DHT22;64778;47.314;8.466;2023-01-16T05:26:06;-1.20;91.00
75105;DHT22;64778;47.314;8.466;2023-01-16T05:28:32;-1.00;90.90
75105;DHT22;64778;47.314;8.466;2023-01-16T05:31:03;-1.10;90.80
75105;DHT22;64778;47.314;8.466;2023-01-16T05:33:31;-1.10;90.70
75105;DHT22;64778;47.314;8.466;2023-01-16T05:35:59;-1.00;90.90
75105;DHT22;64778;47.314;8.466;2023-01-16T05:38:27;-1.00;90.20
75105;DHT22;64778;47.314;8.466;2023-01-16T05:40:53;-1.20;90.50
75105;DHT22;64778;47.314;8.466;2023-01-16T05:43:21;-1.10;90.70
75105;DHT22;64778;47.314;8.466;2023-01-16T05:45:51;-1.10;90.80
75105;DHT22;64778;47.314;8.466;2023-01-16T05:48:17;-1.00;90.50
75105;DHT22;64778;47.314;8.466;2023-01-16T05:50:45;-0.90;90.20
75105;DHT22;64778;47.314;8.466;2023-01-16T05:53:13;-0.90;90.30
75105;DHT22;64778;47.314;8.466;2023-01-16T05:55:43;-0.90;90.10
75105;DHT22;64778;47.314;8.466;2023-01-16T05:58:16;-0.90;90.20
75105;DHT22;64778;47.314;8.466;2023-01-16T06:00:43;-0.80;90.20
75105;DHT22;64778;47.314;8.466;2023-01-16T06:03:14;-0.80;89.60
75105;DHT22;64778;47.314;8.466;2023-01-16T06:05:41;-0.80;89.10
75105;DHT22;64778;47.314;8.466;2023-01-16T06:08:08;-0.80;89.10
75105;DHT22;64778;47.314;8.466;2023-01-16T06:10:38;-0.80;89.00
75105;DHT22;64778;47.314;8.466;2023-01-16T06:13:04;-0.80;89.50
75105;DHT22;64778;47.314;8.466;2023-01-16T06:15:29;-0.70;89.00
75105;DHT22;64778;47.314;8.466;2023-01-16T06:18:00;-0.80;88.70
75105;DHT22;64778;47.314;8.466;2023-01-16T06:20:27;-0.70;88.80
75105;DHT22;64778;47.314;8.466;2023-01-16T06:22:53;-0.70;90.00
75105;DHT22;64778;47.314;8.466;2023-01-16T06:25:19;-0.50;90.00
75105;DHT22;64778;47.314;8.466;2023-01-16T06:27:49;-0.60;90.00
75105;DHT22;64778;47.314;8.466;2023-01-16T06:30:15;-0.60;89.60
75105;DHT22;64778;47.314;8.466;2023-01-16T06:32:46;-0.60;89.60
75105;DHT22;64778;47.314;8.466;2023-01-16T06:35:17;-0.60;89.70
75105;DHT22;64778;47.314;8.466;2023-01-16T06:37:43;-0.50;89.20
75105;DHT22;64778;47.314;8.466;2023-01-16T06:40:09;-0.60;89.10
75105;DHT22;64778;47.314;8.466;2023-01-16T06:42:37;-0.60;89.70
75105;DHT22;64778;47.314;8.466;2023-01-16T06:45:03;-0.50;90.10
75105;DHT22;64778;47.314;8.466;2023-01-16T06:47:28;-0.60;89.50
75105;DHT22;64778;47.314;8.466;2023-01-16T06:49:59;-0.60;89.70
75105;DHT22;64778;47.314;8.466;2023-01-16T06:52:27;-0.50;89.00
75105;DHT22;64778;47.314;8.466;2023-01-16T06:54:55;-0.60;89.10
75105;DHT22;64778;47.314;8.466;2023-01-16T06:57:24;-0.60;89.60
75105;DHT22;64778;47.314;8.466;2023-01-16T06:59:49;-0.60;89.60
75105;DHT22;64778;47.314;8.466;2023-01-16T07:02:15;-0.60;89.60
75105;DHT22;64778;47.314;8.466;2023-01-16T07:04:44;-0.60;89.30
75105;DHT22;64778;47.314;8.466;2023-01-16T07:07:14;-0.60;88.50
75105;DHT22;64778;47.314;8.466;2023-01-16T07:09:40;-0.60;90.10
75105;DHT22;64778;47.314;8.466;2023-01-16T07:12:06;-0.50;89.70
75105;DHT22;64778;47.314;8.466;2023-01-16T07:14:36;-0.40;88.80
75105;DHT22;64778;47.314;8.466;2023-01-16T07:17:21;-0.40;88.20
75105;DHT22;64778;47.314;8.466;2023-01-16T07:20:05;-0.40;88.00
75105;DHT22;64778;47.314;8.466;2023-01-16T07:22:50;-0.40;86.70
75105;DHT22;64778;47.314;8.466;2023-01-16T07:25:18;-0.30;87.00
75105;DHT22;64778;47.314;8.466;2023-01-16T07:27:47;-0.30;85.80
75105;DHT22;64778;47.314;8.466;2023-01-16T07:30:16;-0.30;86.50
75105;DHT22;64778;47.314;8.466;2023-01-16T07:32:43;-0.20;87.80
75105;DHT22;64778;47.314;8.466;2023-01-16T07:35:11;-0.10;88.20
75105;DHT22;64778;47.314;8.466;2023-01-16T07:37:39;0.00;88.30
75105;DHT22;64778;47.314;8.466;2023-01-16T07:40:05;0.00;87.40
75105;DHT22;64778;47.314;8.466;2023-01-16T07:42:31;0.00;88.70
75105;DHT22;64778;47.314;8.466;2023-01-16T07:44:57;0.00;88.30
75105;DHT22;64778;47.314;8.466;2023-01-16T07:47:22;0.00;89.70
75105;DHT22;64778;47.314;8.466;2023-01-16T07:49:48;0.00;89.70
75105;DHT22;64778;47.314;8.466;2023-01-16T07:52:14;0.10;87.50
75105;DHT22;64778;47.314;8.466;2023-01-16T07:54:42;0.10;89.90
75105;DHT22;64778;47.314;8.466;2023-01-16T07:57:07;0.40;91.40
75105;DHT22;64778;47.314;8.466;2023-01-16T07:59:38;0.50;87.40
75105;DHT22;64778;47.314;8.466;2023-01-16T08:02:10;0.40;87.00
75105;DHT22;64778;47.314;8.466;2023-01-16T08:04:39;0.30;87.20
75105;DHT22;64778;47.314;8.466;2023-01-16T08:07:04;0.40;86.60
75105;DHT22;64778;47.314;8.466;2023-01-16T08:09:30;0.40;87.50
75105;DHT22;64778;47.314;8.466;2023-01-16T08:11:56;0.40;87.50
75105;DHT22;64778;47.314;8.466;2023-01-16T08:14:21;0.40;87.10
75105;DHT22;64778;47.314;8.466;2023-01-16T08:16:47;0.40;87.60
75105;DHT22;64778;47.314;8.466;2023-01-16T08:19:14;0.50;88.00
75105;DHT22;64778;47.314;8.466;2023-01-16T08:21:47;0.50;87.50
75105;DHT22;64778;47.314;8.466;2023-01-16T08:24:13;0.60;87.60
75105;DHT22;64778;47.314;8.466;2023-01-16T08:26:40;0.60;87.80
75105;DHT22;64778;47.314;8.466;2023-01-16T08:29:08;0.60;88.20
75105;DHT22;64778;47.314;8.466;2023-01-16T08:31:34;0.60;87.70
75105;DHT22;64778;47.314;8.466;2023-01-16T08:34:02;0.60;86.90
75105;DHT22;64778;47.314;8.466;2023-01-16T08:36:29;0.60;87.10
75105;DHT22;64778;47.314;8.466;2023-01-16T08:38:58;0.50;86.90
75105;DHT22;64778;47.314;8.466;2023-01-16T08:41:26;0.70;87.50
75105;DHT22;64778;47.314;8.466;2023-01-16T08:47:37;0.60;87.20
75105;DHT22;64778;47.314;8.466;2023-01-16T08:50:21;0.00;89.20
75105;DHT22;64778;47.314;8.466;2023-01-16T08:53:08;0.00;89.90
75105;DHT22;64778;47.314;8.466;2023-01-16T08:55:34;0.20;90.10
75105;DHT22;64778;47.314;8.466;2023-01-16T08:58:00;0.30;88.90
75105;DHT22;64778;47.314;8.466;2023-01-16T09:00:27;0.50;88.60
75105;DHT22;64778;47.314;8.466;2023-01-16T09:02:53;0.70;87.60
75105;DHT22;64778;47.314;8.466;2023-01-16T09:05:23;0.80;87.30
75105;DHT22;64778;47.314;8.466;2023-01-16T09:07:50;0.90;86.20
75105;DHT22;64778;47.314;8.466;2023-01-16T09:10:19;1.10;85.00
75105;DHT22;64778;47.314;8.466;2023-01-16T09:12:45;1.20;85.20
75105;DHT22;64778;47.314;8.466;2023-01-16T09:15:29;1.30;84.90
75105;DHT22;64778;47.314;8.466;2023-01-16T09:17:57;1.50;84.80
75105;DHT22;64778;47.314;8.466;2023-01-16T09:20:23;1.60;85.00
75105;DHT22;64778;47.314;8.466;2023-01-16T09:22:52;1.70;83.10
75105;DHT22;64778;47.314;8.466;2023-01-16T09:25:23;1.70;83.00
75105;DHT22;64778;47.314;8.466;2023-01-16T09:27:49;1.70;84.30
75105;DHT22;64778;47.314;8.466;2023-01-16T09:30:15;1.70;82.00
75105;DHT22;64778;47.314;8.466;2023-01-16T09:32:46;1.80;78.90
75105;DHT22;64778;47.314;8.466;2023-01-16T09:35:14;1.70;78.00
75105;DHT22;64778;47.314;8.466;2023-01-16T09:37:42;1.50;78.30
75105;DHT22;64778;47.314;8.466;2023-01-16T09:40:14;1.60;81.70
75105;DHT22;64778;47.314;8.466;2023-01-16T09:45:57;1.70;82.70
75105;DHT22;64778;47.314;8.466;2023-01-16T09:48:31;1.80;84.30
75105;DHT22;64778;47.314;8.466;2023-01-16T09:51:02;1.90;81.00
75105;DHT22;64778;47.314;8.466;2023-01-16T09:56:30;2.00;81.90
75105;DHT22;64778;47.314;8.466;2023-01-16T09:59:48;2.00;81.80
75105;DHT22;64778;47.314;8.466;2023-01-16T10:02:27;2.10;82.90
75105;DHT22;64778;47.314;8.466;2023-01-16T10:04:55;2.20;80.80
75105;DHT22;64778;47.314;8.466;2023-01-16T10:10:38;2.40;80.70
75105;DHT22;64778;47.314;8.466;2023-01-16T10:16:07;2.60;79.20
75105;DHT22;64778;47.314;8.466;2023-01-16T10:22:15;2.50;80.10
75105;DHT22;64778;47.314;8.466;2023-01-16T10:37:44;1.80;84.80
75105;DHT22;64778;47.314;8.466;2023-01-16T10:40:19;1.90;85.00
75105;DHT22;64778;47.314;8.466;2023-01-16T10:43:00;1.90;84.80
75105;DHT22;64778;47.314;8.466;2023-01-16T10:45:45;1.90;85.10
75105;DHT22;64778;47.314;8.466;2023-01-16T10:48:30;1.90;88.60
75105;DHT22;64778;47.314;8.466;2023-01-16T10:51:14;2.00;86.10
75105;DHT22;64778;47.314;8.466;2023-01-16T10:53:45;2.20;85.20
75105;DHT22;64778;47.314;8.466;2023-01-16T10:56:13;2.10;84.80
75105;DHT22;64778;47.314;8.466;2023-01-16T10:58:41;1.60;85.30
75105;DHT22;64778;47.314;8.466;2023-01-16T11:01:13;1.50;85.10
75105;DHT22;64778;47.314;8.466;2023-01-16T11:03:49;1.10;87.20
75105;DHT22;64778;47.314;8.466;2023-01-16T11:08:54;0.90;87.70
75105;DHT22;64778;47.314;8.466;2023-01-16T11:11:20;1.10;87.60
75105;DHT22;64778;47.314;8.466;2023-01-16T11:14:32;1.30;86.00
75105;DHT22;64778;47.314;8.466;2023-01-16T11:22:47;1.10;87.40
75105;DHT22;64778;47.314;8.466;2023-01-16T11:25:17;1.30;87.40
75105;DHT22;64778;47.314;8.466;2023-01-16T11:27:44;1.50;87.60
75105;DHT22;64778;47.314;8.466;2023-01-16T11:30:26;1.40;85.90
75105;DHT22;64778;47.314;8.466;2023-01-16T11:32:56;1.40;86.80
75105;DHT22;64778;47.314;8.466;2023-01-16T11:35:32;1.50;86.70
75105;DHT22;64778;47.314;8.466;2023-01-16T11:37:59;1.60;84.60
75105;DHT22;64778;47.314;8.466;2023-01-16T11:40:27;1.70;85.90
75105;DHT22;64778;47.314;8.466;2023-01-16T11:42:57;1.80;84.90
75105;DHT22;64778;47.314;8.466;2023-01-16T11:45:50;1.70;84.90
75105;DHT22;64778;47.314;8.466;2023-01-16T11:48:40;1.60;85.30
75105;DHT22;64778;47.314;8.466;2023-01-16T11:51:17;1.50;85.30
75105;DHT22;64778;47.314;8.466;2023-01-16T11:53:47;1.40;86.10
75105;DHT22;64778;47.314;8.466;2023-01-16T11:59:26;1.40;87.10
75105;DHT22;64778;47.314;8.466;2023-01-16T12:25:36;3.20;65.90
75105;DHT22;64778;47.314;8.466;2023-01-16T12:34:16;5.20;68.60
75105;DHT22;64778;47.314;8.466;2023-01-16T12:43:30;8.00;54.10
75105;DHT22;64778;47.314;8.466;2023-01-16T12:46:06;10.20;50.50
75105;DHT22;64778;47.314;8.466;2023-01-16T12:51:40;13.80;41.10
75105;DHT22;64778;47.314;8.466;2023-01-16T12:54:33;15.40;36.80
75105;DHT22;64778;47.314;8.466;2023-01-16T12:57:11;17.50;33.20
75105;DHT22;64778;47.314;8.466;2023-01-16T12:59:57;17.70;32.50
75105;DHT22;64778;47.314;8.466;2023-01-16T13:05:21;13.30;38.00
75105;DHT22;64778;47.314;8.466;2023-01-16T13:10:46;7.70;51.10
75105;DHT22;64778;47.314;8.466;2023-01-16T13:14:05;6.10;58.10
75105;DHT22;64778;47.314;8.466;2023-01-16T13:24:36;4.40;67.10
75105;DHT22;64778;47.314;8.466;2023-01-16T13:27:09;4.50;64.70
75105;DHT22;64778;47.314;8.466;2023-01-16T13:29:41;4.30;66.20
75105;DHT22;64778;47.314;8.466;2023-01-16T13:34:57;4.30;68.10
75105;DHT22;64778;47.314;8.466;2023-01-16T13:37:31;4.60;67.00
75105;DHT22;64778;47.314;8.466;2023-01-16T13:42:41;4.60;68.00
75105;DHT22;64778;47.314;8.466;2023-01-16T13:45:31;4.20;69.40
75105;DHT22;64778;47.314;8.466;2023-01-16T13:48:30;4.00;72.70
75105;DHT22;64778;47.314;8.466;2023-01-16T13:51:01;4.30;72.30
75105;DHT22;64778;47.314;8.466;2023-01-16T13:53:31;4.60;70.90
75105;DHT22;64778;47.314;8.466;2023-01-16T13:56:15;4.70;71.70
75105;DHT22;64778;47.314;8.466;2023-01-16T14:06:54;4.60;71.30
75105;DHT22;64778;47.314;8.466;2023-01-16T14:13:47;5.10;68.10
75105;DHT22;64778;47.314;8.466;2023-01-16T14:19:38;9.10;51.10
75105;DHT22;64778;47.314;8.466;2023-01-16T14:22:12;10.10;50.30
75105;DHT22;64778;47.314;8.466;2023-01-16T14:24:46;10.90;48.90
75105;DHT22;64778;47.314;8.466;2023-01-16T14:27:22;12.10;44.30
75105;DHT22;64778;47.314;8.466;2023-01-16T14:33:18;11.10;46.20
75105;DHT22;64778;47.314;8.466;2023-01-16T14:35:48;9.30;48.20
75105;DHT22;64778;47.314;8.466;2023-01-16T14:38:15;9.30;48.80
75105;DHT22;64778;47.314;8.466;2023-01-16T14:40:58;8.70;49.80
75105;DHT22;64778;47.314;8.466;2023-01-16T14:46:51;9.50;47.50
75105;DHT22;64778;47.314;8.466;2023-01-16T14:49:42;11.00;45.20
75105;DHT22;64778;47.314;8.466;2023-01-16T14:56:12;10.20;45.20
75105;DHT22;64778;47.314;8.466;2023-01-16T14:58:50;8.60;48.40
75105;DHT22;64778;47.314;8.466;2023-01-16T15:01:33;7.60;51.40
75105;DHT22;64778;47.314;8.466;2023-01-16T15:04:22;6.70;53.50
75105;DHT22;64778;47.314;8.466;2023-01-16T15:06:56;5.70;58.10
75105;DHT22;64778;47.314;8.466;2023-01-16T15:09:30;5.50;58.20
75105;DHT22;64778;47.314;8.466;2023-01-16T15:14:25;5.20;61.30
75105;DHT22;64778;47.314;8.466;2023-01-16T15:31:27;4.70;64.70
75105;DHT22;64778;47.314;8.466;2023-01-16T15:33:58;4.70;65.90
75105;DHT22;64778;47.314;8.466;2023-01-16T15:39:46;5.10;64.50
75105;DHT22;64778;47.314;8.466;2023-01-16T15:45:36;5.20;65.60
75105;DHT22;64778;47.314;8.466;2023-01-16T15:51:06;5.20;64.20
75105;DHT22;64778;47.314;8.466;2023-01-16T15:53:40;5.20;63.70
75105;DHT22;64778;47.314;8.466;2023-01-16T15:56:10;5.20;63.90
75105;DHT22;64778;47.314;8.466;2023-01-16T15:58:41;5.20;63.10
75105;DHT22;64778;47.314;8.466;2023-01-16T16:01:08;5.10;64.70
75105;DHT22;64778;47.314;8.466;2023-01-16T16:03:42;5.10;64.70
75105;DHT22;64778;47.314;8.466;2023-01-16T16:06:11;5.00;65.90
75105;DHT22;64778;47.314;8.466;2023-01-16T16:11:40;5.00;64.90
75105;DHT22;64778;47.314;8.466;2023-01-16T16:20:26;4.90;64.30
75105;DHT22;64778;47.314;8.466;2023-01-16T16:22:54;5.00;63.20
75105;DHT22;64778;47.314;8.466;2023-01-16T16:27:58;5.00;62.60
75105;DHT22;64778;47.314;8.466;2023-01-16T16:30:27;5.00;62.40
75105;DHT22;64778;47.314;8.466;2023-01-16T16:32:56;5.00;61.20
75105;DHT22;64778;47.314;8.466;2023-01-16T16:35:35;5.00;61.30
75105;DHT22;64778;47.314;8.466;2023-01-16T16:38:18;5.00;61.50
75105;DHT22;64778;47.314;8.466;2023-01-16T16:46:39;5.00;59.50
75105;DHT22;64778;47.314;8.466;2023-01-16T16:52:27;5.00;59.80
75105;DHT22;64778;47.314;8.466;2023-01-16T16:58:00;5.00;60.10
75105;DHT22;64778;47.314;8.466;2023-01-16T17:03:55;4.90;60.30
75105;DHT22;64778;47.314;8.466;2023-01-16T17:06:22;4.90;60.20
75105;DHT22;64778;47.314;8.466;2023-01-16T17:08:48;4.90;61.20
75105;DHT22;64778;47.314;8.466;2023-01-16T17:11:15;4.90;61.40
75105;DHT22;64778;47.314;8.466;2023-01-16T17:13:41;4.90;60.00
75105;DHT22;64778;47.314;8.466;2023-01-16T17:16:22;5.00;60.30
75105;DHT22;64778;47.314;8.466;2023-01-16T17:18:59;5.10;59.10
75105;DHT22;64778;47.314;8.466;2023-01-16T17:21:25;5.10;59.90
75105;DHT22;64778;47.314;8.466;2023-01-16T17:24:25;5.00;60.10
75105;DHT22;64778;47.314;8.466;2023-01-16T17:26:50;5.00;61.20
75105;DHT22;64778;47.314;8.466;2023-01-16T17:29:18;4.90;61.00
75105;DHT22;64778;47.314;8.466;2023-01-16T17:35:14;4.90;61.30
75105;DHT22;64778;47.314;8.466;2023-01-16T17:37:41;4.90;60.80
75105;DHT22;64778;47.314;8.466;2023-01-16T17:40:11;4.80;61.70
75105;DHT22;64778;47.314;8.466;2023-01-16T17:42:37;4.80;59.90
75105;DHT22;64778;47.314;8.466;2023-01-16T17:45:29;4.90;59.40
75105;DHT22;64778;47.314;8.466;2023-01-16T17:48:14;4.90;59.30
75105;DHT22;64778;47.314;8.466;2023-01-16T17:50:40;4.90;59.40
75105;DHT22;64778;47.314;8.466;2023-01-16T17:53:08;4.80;59.50
75105;DHT22;64778;47.314;8.466;2023-01-16T17:55:37;4.80;59.70
75105;DHT22;64778;47.314;8.466;2023-01-16T17:58:22;4.80;60.00
75105;DHT22;64778;47.314;8.466;2023-01-16T18:00:57;4.70;59.90
75105;DHT22;64778;47.314;8.466;2023-01-16T18:03:23;4.70;60.60
75105;DHT22;64778;47.314;8.466;2023-01-16T18:06:05;4.60;60.70
75105;DHT22;64778;47.314;8.466;2023-01-16T18:08:31;4.70;59.90
75105;DHT22;64778;47.314;8.466;2023-01-16T18:11:00;4.70;60.30
75105;DHT22;64778;47.314;8.466;2023-01-16T18:13:46;4.70;60.90
75105;DHT22;64778;47.314;8.466;2023-01-16T18:16:30;4.60;60.30
75105;DHT22;64778;47.314;8.466;2023-01-16T18:19:14;4.70;59.80
75105;DHT22;64778;47.314;8.466;2023-01-16T18:21:40;4.70;59.30
75105;DHT22;64778;47.314;8.466;2023-01-16T18:24:24;4.60;60.00
75105;DHT22;64778;47.314;8.466;2023-01-16T18:26:52;4.60;60.70
75105;DHT22;64778;47.314;8.466;2023-01-16T18:29:20;4.50;61.00
75105;DHT22;64778;47.314;8.466;2023-01-16T18:31:50;4.50;60.70
75105;DHT22;64778;47.314;8.466;2023-01-16T18:34:34;4.50;60.30
75105;DHT22;64778;47.314;8.466;2023-01-16T18:37:00;4.50;60.40
75105;DHT22;64778;47.314;8.466;2023-01-16T18:42:29;4.60;59.60
75105;DHT22;64778;47.314;8.466;2023-01-16T18:45:13;4.30;66.60
75105;DHT22;64778;47.314;8.466;2023-01-16T18:47:58;4.10;69.50
75105;DHT22;64778;47.314;8.466;2023-01-16T18:50:45;3.90;71.20
75105;DHT22;64778;47.314;8.466;2023-01-16T18:53:30;3.70;71.80
75105;DHT22;64778;47.314;8.466;2023-01-16T18:56:16;3.60;73.30
75105;DHT22;64778;47.314;8.466;2023-01-16T18:59:01;3.60;74.50
75105;DHT22;64778;47.314;8.466;2023-01-16T19:01:45;3.60;74.50
75105;DHT22;64778;47.314;8.466;2023-01-16T19:04:21;3.50;71.40
75105;DHT22;64778;47.314;8.466;2023-01-16T19:06:46;3.70;70.10
75105;DHT22;64778;47.314;8.466;2023-01-16T19:09:17;3.70;72.20
75105;DHT22;64778;47.314;8.466;2023-01-16T19:11:44;3.50;76.30
75105;DHT22;64778;47.314;8.466;2023-01-16T19:14:13;3.40;78.50
75105;DHT22;64778;47.314;8.466;2023-01-16T19:16:39;3.30;80.60
75105;DHT22;64778;47.314;8.466;2023-01-16T19:19:14;3.20;81.70
75105;DHT22;64778;47.314;8.466;2023-01-16T19:21:40;3.10;82.20
75105;DHT22;64778;47.314;8.466;2023-01-16T19:24:07;3.00;83.00
75105;DHT22;64778;47.314;8.466;2023-01-16T19:26:33;2.90;83.80
75105;DHT22;64778;47.314;8.466;2023-01-16T19:28:58;2.80;84.30
75105;DHT22;64778;47.314;8.466;2023-01-16T19:31:24;2.70;84.00
75105;DHT22;64778;47.314;8.466;2023-01-16T19:33:49;2.70;83.50
75105;DHT22;64778;47.314;8.466;2023-01-16T19:36:15;2.70;83.10
75105;DHT22;64778;47.314;8.466;2023-01-16T19:38:40;2.70;80.90
75105;DHT22;64778;47.314;8.466;2023-01-16T19:41:07;2.80;79.80
75105;DHT22;64778;47.314;8.466;2023-01-16T19:47:15;3.10;74.30
75105;DHT22;64778;47.314;8.466;2023-01-16T19:49:41;3.20;72.80
75105;DHT22;64778;47.314;8.466;2023-01-16T19:55:28;3.50;67.30
75105;DHT22;64778;47.314;8.466;2023-01-16T19:57:54;3.60;66.40
75105;DHT22;64778;47.314;8.466;2023-01-16T20:00:19;3.60;65.40
75105;DHT22;64778;47.314;8.466;2023-01-16T20:02:46;3.60;65.90
75105;DHT22;64778;47.314;8.466;2023-01-16T20:05:11;3.60;65.70
75105;DHT22;64778;47.314;8.466;2023-01-16T20:10:40;3.60;66.30
75105;DHT22;64778;47.314;8.466;2023-01-16T20:16:10;3.60;65.60
75105;DHT22;64778;47.314;8.466;2023-01-16T20:18:39;3.60;66.10
75105;DHT22;64778;47.314;8.466;2023-01-16T20:21:05;3.60;66.80
75105;DHT22;64778;47.314;8.466;2023-01-16T20:23:33;3.60;66.70
75105;DHT22;64778;47.314;8.466;2023-01-16T20:29:02;3.60;67.90
75105;DHT22;64778;47.314;8.466;2023-01-16T20:31:27;3.60;68.10